Time;durP1;ratioP1;P1;durP2;ratioP2;P2;SDS_P1;SDS_P2;PMS_P1;PMS_P2;Temp;Humidity;BMP_temperature;BMP_pressure;BME280_temperature;BME280_humidity;BME280_pressure;Samples;Min_cycle;Max_cycle;Signal;HPM_P1;HPM_P2
2022/09/04 00:00:02;;;;;;;1.0;1.0;;;;;;;20.8;100.0;101080;;;;
2022/09/04 00:01:01;;;;;;;1.0;1.0;;;;;;;20.8;100.0;101080;;;;
2022/09/04 00:02:01;;;;;;;1.0;1.0;;;;;;;20.8;100.0;101080;;;;
2022/09/04 00:03:09;;;;;;;1.0;1.0;;;;;;;20.8;100.0;101080;;;;
2022/09/04 00:04:10;;;;;;;1.0;1.0;;;;;;;20.8;100.0;101090;;;;
2022/09/04 00:05:05;;;;;;;1.0;1.0;;;;;;;20.8;100.0;101090;;;;
2022/09/04 00:06:04;;;;;;;1.0;1.0;;;;;;;20.8;100.0;101080;;;;
2022/09/04 00:07:05;;;;;;;1.0;1.0;;;;;;;20.8;100.0;101080;;;;
2022/09/04 00:08:01;;;;;;;1.0;1.0;;;;;;;20.5;100.0;101080;;;;
2022/09/04 00:09:00;;;;;;;1.0;1.0;;;;;;;20.5;100.0;101080;;;;
2022/09/04 00:10:10;;;;;;;1.0;1.0;;;;;;;20.8;100.0;101080;;;;
2022/09/04 00:11:00;;;;;;;0.5;0.5;;;;;;;20.8;100.0;101080;;;;
2022/09/04 00:12:03;;;;;;;0.5;0.5;;;;;;;20.6;100.0;101090;;;;
2022/09/04 00:13:03;;;;;;;0.5;0.5;;;;;;;20.6;100.0;101090;;;;
2022/09/04 00:14:02;;;;;;;0.5;0.5;;;;;;;20.6;100.0;101090;;;;
2022/09/04 00:15:04;;;;;;;0.5;0.5;;;;;;;20.6;100.0;101090;;;;
2022/09/04 00:16:05;;;;;;;0.5;0.5;;;;;;;20.6;100.0;101100;;;;
2022/09/04 00:17:02;;;;;;;0.5;0.5;;;;;;;20.6;100.0;101100;;;;
2022/09/04 00:18:03;;;;;;;0.5;0.5;;;;;;;20.5;100.0;101100;;;;
2022/09/04 00:19:10;;;;;;;0.5;0.5;;;;;;;20.5;100.0;101100;;;;
2022/09/04 00:20:02;;;;;;;0.5;0.5;;;;;;;20.3;100.0;101100;;;;
2022/09/04 00:21:06;;;;;;;0.5;0.5;;;;;;;20.3;100.0;101100;;;;
2022/09/04 00:22:03;;;;;;;0.5;0.5;;;;;;;20.5;100.0;101100;;;;
2022/09/04 00:23:10;;;;;;;0.5;0.5;;;;;;;20.5;100.0;101100;;;;
2022/09/04 00:24:02;;;;;;;0.5;0.5;;;;;;;20.6;100.0;101090;;;;
2022/09/04 00:25:06;;;;;;;0.5;0.5;;;;;;;20.6;100.0;101090;;;;
2022/09/04 00:26:10;;;;;;;0.5;0.5;;;;;;;20.4;100.0;101100;;;;
2022/09/04 00:27:10;;;;;;;0.5;0.5;;;;;;;20.4;100.0;101100;;;;
2022/09/04 00:28:03;;;;;;;0.5;0.5;;;;;;;20.4;100.0;101100;;;;
2022/09/04 00:29:04;;;;;;;0.5;0.5;;;;;;;20.4;100.0;101100;;;;
2022/09/04 00:30:04;;;;;;;0.5;0.5;;;;;;;20.3;100.0;101100;;;;
2022/09/04 00:31:06;;;;;;;1.0;1.0;;;;;;;20.3;100.0;101100;;;;
2022/09/04 00:32:07;;;;;;;1.0;1.0;;;;;;;20.5;100.0;101110;;;;
2022/09/04 00:33:07;;;;;;;1.0;1.0;;;;;;;20.5;100.0;101110;;;;
2022/09/04 00:34:10;;;;;;;1.0;1.0;;;;;;;20.4;100.0;101110;;;;
2022/09/04 00:35:10;;;;;;;1.0;1.0;;;;;;;20.4;100.0;101110;;;;
2022/09/04 00:36:02;;;;;;;1.0;1.0;;;;;;;20.3;100.0;101110;;;;
2022/09/04 00:37:04;;;;;;;1.0;1.0;;;;;;;20.3;100.0;101110;;;;
2022/09/04 00:38:10;;;;;;;1.0;1.0;;;;;;;20.4;100.0;101110;;;;
2022/09/04 00:39:02;;;;;;;1.0;1.0;;;;;;;20.4;100.0;101110;;;;
2022/09/04 00:40:10;;;;;;;1.0;1.0;;;;;;;20.2;100.0;101110;;;;
2022/09/04 00:41:03;;;;;;;1.0;1.0;;;;;;;20.2;100.0;101110;;;;
2022/09/04 00:42:10;;;;;;;1.0;1.0;;;;;;;20.3;100.0;101110;;;;
2022/09/04 00:43:09;;;;;;;1.0;1.0;;;;;;;20.3;100.0;101110;;;;
2022/09/04 00:44:06;;;;;;;1.0;1.0;;;;;;;20.3;100.0;101110;;;;
2022/09/04 00:45:14;;;;;;;1.0;1.0;;;;;;;20.3;100.0;101110;;;;
2022/09/04 00:46:01;;;;;;;1.0;1.0;;;;;;;20.3;100.0;101110;;;;
2022/09/04 00:47:07;;;;;;;1.0;1.0;;;;;;;20.3;100.0;101110;;;;
2022/09/04 00:48:10;;;;;;;1.0;1.0;;;;;;;20.4;100.0;101120;;;;
2022/09/04 00:49:10;;;;;;;1.0;1.0;;;;;;;20.4;100.0;101120;;;;
2022/09/04 00:50:10;;;;;;;1.0;1.0;;;;;;;20.1;100.0;101120;;;;
2022/09/04 00:51:10;;;;;;;0.7;0.7;;;;;;;20.1;100.0;101120;;;;
2022/09/04 00:52:00;;;;;;;0.7;0.7;;;;;;;20.2;100.0;101110;;;;
2022/09/04 00:53:06;;;;;;;0.7;0.7;;;;;;;20.2;100.0;101110;;;;
2022/09/04 00:54:10;;;;;;;0.7;0.7;;;;;;;20.2;100.0;101110;;;;
2022/09/04 00:55:01;;;;;;;0.7;0.7;;;;;;;20.2;100.0;101110;;;;
2022/09/04 00:56:10;;;;;;;0.7;0.7;;;;;;;20.1;100.0;101110;;;;
2022/09/04 00:57:12;;;;;;;0.7;0.7;;;;;;;20.1;100.0;101110;;;;
2022/09/04 00:58:00;;;;;;;0.7;0.7;;;;;;;20.1;100.0;101110;;;;
2022/09/04 00:59:10;;;;;;;0.7;0.7;;;;;;;20.1;100.0;101110;;;;
2022/09/04 01:00:13;;;;;;;0.7;0.7;;;;;;;20.1;100.0;101120;;;;
2022/09/04 01:01:00;;;;;;;0.7;0.7;;;;;;;20.1;100.0;101120;;;;
2022/09/04 01:02:06;;;;;;;0.7;0.7;;;;;;;20.0;100.0;101120;;;;
2022/09/04 01:03:11;;;;;;;0.7;0.7;;;;;;;20.0;100.0;101120;;;;
2022/09/04 01:04:10;;;;;;;0.7;0.7;;;;;;;20.0;100.0;101130;;;;
2022/09/04 01:05:19;;;;;;;0.7;0.7;;;;;;;20.0;100.0;101130;;;;
2022/09/04 01:06:10;;;;;;;0.7;0.7;;;;;;;20.1;100.0;101130;;;;
2022/09/04 01:07:08;;;;;;;0.7;0.7;;;;;;;20.1;100.0;101130;;;;
2022/09/04 01:08:16;;;;;;;0.7;0.7;;;;;;;19.9;100.0;101130;;;;
2022/09/04 01:09:10;;;;;;;0.7;0.7;;;;;;;19.9;100.0;101130;;;;
2022/09/04 01:10:10;;;;;;;0.7;0.7;;;;;;;19.8;100.0;101130;;;;
2022/09/04 01:11:10;;;;;;;0.2;0.2;;;;;;;19.8;100.0;101130;;;;
2022/09/04 01:12:00;;;;;;;0.2;0.2;;;;;;;20.0;100.0;101140;;;;
2022/09/04 01:13:05;;;;;;;0.2;0.2;;;;;;;20.0;100.0;101140;;;;
2022/09/04 01:14:00;;;;;;;0.2;0.2;;;;;;;19.9;100.0;101140;;;;
2022/09/04 01:15:13;;;;;;;0.2;0.2;;;;;;;19.9;100.0;101140;;;;
2022/09/04 01:16:09;;;;;;;0.2;0.2;;;;;;;19.8;100.0;101140;;;;
2022/09/04 01:17:01;;;;;;;0.2;0.2;;;;;;;19.8;100.0;101140;;;;
2022/09/04 01:18:05;;;;;;;0.2;0.2;;;;;;;19.6;100.0;101140;;;;
2022/09/04 01:19:10;;;;;;;0.2;0.2;;;;;;;19.6;100.0;101140;;;;
2022/09/04 01:20:01;;;;;;;0.2;0.2;;;;;;;19.7;100.0;101140;;;;
2022/09/04 01:21:00;;;;;;;0.2;0.2;;;;;;;19.7;100.0;101140;;;;
2022/09/04 01:22:10;;;;;;;0.2;0.2;;;;;;;19.8;100.0;101140;;;;
2022/09/04 01:23:00;;;;;;;0.2;0.2;;;;;;;19.8;100.0;101140;;;;
2022/09/04 01:24:10;;;;;;;0.2;0.2;;;;;;;19.9;100.0;101150;;;;
2022/09/04 01:25:04;;;;;;;0.2;0.2;;;;;;;19.9;100.0;101150;;;;
2022/09/04 01:26:10;;;;;;;0.2;0.2;;;;;;;19.5;100.0;101150;;;;
2022/09/04 01:27:10;;;;;;;0.2;0.2;;;;;;;19.5;100.0;101150;;;;
2022/09/04 01:28:02;;;;;;;0.2;0.2;;;;;;;19.5;100.0;101140;;;;
2022/09/04 01:29:10;;;;;;;0.2;0.2;;;;;;;19.5;100.0;101140;;;;
2022/09/04 01:30:01;;;;;;;0.2;0.2;;;;;;;19.6;100.0;101140;;;;
2022/09/04 01:31:06;;;;;;;0.3;0.3;;;;;;;19.6;100.0;101140;;;;
2022/09/04 01:32:08;;;;;;;0.3;0.3;;;;;;;19.6;100.0;101150;;;;
2022/09/04 01:33:06;;;;;;;0.3;0.3;;;;;;;19.6;100.0;101150;;;;
2022/09/04 01:34:10;;;;;;;0.3;0.3;;;;;;;19.7;100.0;101150;;;;
2022/09/04 01:35:10;;;;;;;0.3;0.3;;;;;;;19.7;100.0;101150;;;;
2022/09/04 01:36:04;;;;;;;0.3;0.3;;;;;;;19.5;100.0;101150;;;;
2022/09/04 01:37:08;;;;;;;0.3;0.3;;;;;;;19.5;100.0;101150;;;;
2022/09/04 01:38:10;;;;;;;0.3;0.3;;;;;;;19.4;100.0;101150;;;;
2022/09/04 01:39:01;;;;;;;0.3;0.3;;;;;;;19.4;100.0;101150;;;;
2022/09/04 01:40:10;;;;;;;0.3;0.3;;;;;;;19.4;100.0;101150;;;;
2022/09/04 01:41:06;;;;;;;0.3;0.3;;;;;;;19.4;100.0;101150;;;;
2022/09/04 01:42:04;;;;;;;0.3;0.3;;;;;;;19.5;100.0;101150;;;;
2022/09/04 01:43:03;;;;;;;0.3;0.3;;;;;;;19.5;100.0;101150;;;;
2022/09/04 01:44:01;;;;;;;0.3;0.3;;;;;;;19.4;100.0;101150;;;;
2022/09/04 01:45:00;;;;;;;0.3;0.3;;;;;;;19.4;100.0;101150;;;;
2022/09/04 01:46:10;;;;;;;0.3;0.3;;;;;;;19.5;100.0;101150;;;;
2022/09/04 01:47:09;;;;;;;0.3;0.3;;;;;;;19.5;100.0;101150;;;;
2022/09/04 01:48:02;;;;;;;0.3;0.3;;;;;;;19.6;100.0;101160;;;;
2022/09/04 01:49:00;;;;;;;0.3;0.3;;;;;;;19.6;100.0;101160;;;;
2022/09/04 01:50:03;;;;;;;0.3;0.3;;;;;;;19.7;100.0;101160;;;;
2022/09/04 01:51:10;;;;;;;0.4;0.4;;;;;;;19.7;100.0;101160;;;;
2022/09/04 01:52:10;;;;;;;0.4;0.4;;;;;;;19.6;100.0;101160;;;;
2022/09/04 01:53:01;;;;;;;0.4;0.4;;;;;;;19.6;100.0;101160;;;;
2022/09/04 01:54:06;;;;;;;0.4;0.4;;;;;;;19.5;100.0;101160;;;;
2022/09/04 01:55:10;;;;;;;0.4;0.4;;;;;;;19.5;100.0;101160;;;;
2022/09/04 01:56:08;;;;;;;0.4;0.4;;;;;;;19.5;100.0;101160;;;;
2022/09/04 01:57:10;;;;;;;0.4;0.4;;;;;;;19.5;100.0;101160;;;;
2022/09/04 01:58:05;;;;;;;0.4;0.4;;;;;;;19.4;100.0;101160;;;;
2022/09/04 01:59:05;;;;;;;0.4;0.4;;;;;;;19.4;100.0;101160;;;;
2022/09/04 02:00:04;;;;;;;0.4;0.4;;;;;;;19.5;100.0;101160;;;;
2022/09/04 02:01:03;;;;;;;0.4;0.4;;;;;;;19.5;100.0;101160;;;;
2022/09/04 02:02:09;;;;;;;0.4;0.4;;;;;;;19.5;100.0;101160;;;;
2022/09/04 02:03:09;;;;;;;0.4;0.4;;;;;;;19.5;100.0;101160;;;;
2022/09/04 02:04:11;;;;;;;0.4;0.4;;;;;;;19.4;100.0;101160;;;;
2022/09/04 02:05:08;;;;;;;0.4;0.4;;;;;;;19.4;100.0;101160;;;;
2022/09/04 02:06:07;;;;;;;0.4;0.4;;;;;;;19.4;100.0;101160;;;;
2022/09/04 02:07:10;;;;;;;0.4;0.4;;;;;;;19.4;100.0;101160;;;;
2022/09/04 02:08:01;;;;;;;0.4;0.4;;;;;;;19.4;100.0;101160;;;;
2022/09/04 02:09:10;;;;;;;0.4;0.4;;;;;;;19.4;100.0;101160;;;;
2022/09/04 02:10:00;;;;;;;0.4;0.4;;;;;;;19.2;100.0;101170;;;;
2022/09/04 02:11:06;;;;;;;0.4;0.4;;;;;;;19.2;100.0;101170;;;;
2022/09/04 02:12:10;;;;;;;0.4;0.4;;;;;;;19.2;100.0;101170;;;;
2022/09/04 02:13:11;;;;;;;0.4;0.4;;;;;;;19.2;100.0;101170;;;;
2022/09/04 02:14:07;;;;;;;0.4;0.4;;;;;;;19.2;100.0;101170;;;;
2022/09/04 02:15:05;;;;;;;0.4;0.4;;;;;;;19.2;100.0;101170;;;;
2022/09/04 02:16:13;;;;;;;0.4;0.4;;;;;;;19.2;100.0;101180;;;;
2022/09/04 02:17:10;;;;;;;0.4;0.4;;;;;;;19.2;100.0;101180;;;;
2022/09/04 02:18:10;;;;;;;0.4;0.4;;;;;;;19.1;100.0;101190;;;;
2022/09/04 02:19:11;;;;;;;0.4;0.4;;;;;;;19.1;100.0;101190;;;;
2022/09/04 02:20:06;;;;;;;0.4;0.4;;;;;;;18.9;100.0;101190;;;;
2022/09/04 02:21:10;;;;;;;0.4;0.4;;;;;;;18.9;100.0;101190;;;;
2022/09/04 02:22:11;;;;;;;0.4;0.4;;;;;;;18.9;100.0;101190;;;;
2022/09/04 02:23:04;;;;;;;0.4;0.4;;;;;;;18.9;100.0;101190;;;;
2022/09/04 02:24:01;;;;;;;0.4;0.4;;;;;;;18.8;100.0;101190;;;;
2022/09/04 02:25:10;;;;;;;0.4;0.4;;;;;;;18.8;100.0;101190;;;;
2022/09/04 02:26:07;;;;;;;0.4;0.4;;;;;;;19.0;100.0;101190;;;;
2022/09/04 02:27:00;;;;;;;0.4;0.4;;;;;;;19.0;100.0;101190;;;;
2022/09/04 02:28:00;;;;;;;0.4;0.4;;;;;;;19.0;100.0;101190;;;;
2022/09/04 02:29:00;;;;;;;0.4;0.4;;;;;;;19.0;100.0;101190;;;;
2022/09/04 02:30:03;;;;;;;0.4;0.4;;;;;;;19.0;100.0;101200;;;;
2022/09/04 02:31:10;;;;;;;1.3;1.2;;;;;;;19.0;100.0;101200;;;;
2022/09/04 02:32:00;;;;;;;1.3;1.2;;;;;;;19.1;100.0;101200;;;;
2022/09/04 02:33:06;;;;;;;1.3;1.2;;;;;;;19.1;100.0;101200;;;;
2022/09/04 02:34:05;;;;;;;1.3;1.2;;;;;;;19.2;100.0;101200;;;;
2022/09/04 02:35:10;;;;;;;1.3;1.2;;;;;;;19.2;100.0;101200;;;;
2022/09/04 02:36:04;;;;;;;1.3;1.2;;;;;;;18.6;100.0;101200;;;;
2022/09/04 02:37:10;;;;;;;1.3;1.2;;;;;;;18.6;100.0;101200;;;;
2022/09/04 02:38:00;;;;;;;1.3;1.2;;;;;;;18.9;100.0;101200;;;;
2022/09/04 02:39:10;;;;;;;1.3;1.2;;;;;;;18.9;100.0;101200;;;;
2022/09/04 02:40:10;;;;;;;1.3;1.2;;;;;;;19.0;100.0;101200;;;;
2022/09/04 02:41:10;;;;;;;1.3;1.2;;;;;;;19.0;100.0;101200;;;;
2022/09/04 02:42:02;;;;;;;1.3;1.2;;;;;;;18.7;100.0;101200;;;;
2022/09/04 02:43:00;;;;;;;1.3;1.2;;;;;;;18.7;100.0;101200;;;;
2022/09/04 02:44:10;;;;;;;1.3;1.2;;;;;;;18.9;100.0;101200;;;;
2022/09/04 02:45:08;;;;;;;1.3;1.2;;;;;;;18.9;100.0;101200;;;;
2022/09/04 02:46:05;;;;;;;1.3;1.2;;;;;;;19.0;100.0;101200;;;;
2022/09/04 02:47:11;;;;;;;1.3;1.2;;;;;;;19.0;100.0;101200;;;;
2022/09/04 02:48:05;;;;;;;1.3;1.2;;;;;;;19.0;100.0;101200;;;;
2022/09/04 02:49:06;;;;;;;1.3;1.2;;;;;;;19.0;100.0;101200;;;;
2022/09/04 02:50:03;;;;;;;1.3;1.2;;;;;;;19.0;100.0;101200;;;;
2022/09/04 02:51:12;;;;;;;0.7;0.7;;;;;;;19.0;100.0;101200;;;;
2022/09/04 02:52:10;;;;;;;0.7;0.7;;;;;;;19.0;100.0;101200;;;;
2022/09/04 02:53:10;;;;;;;0.7;0.7;;;;;;;19.0;100.0;101200;;;;
2022/09/04 02:54:05;;;;;;;0.7;0.7;;;;;;;19.0;100.0;101210;;;;
2022/09/04 02:55:10;;;;;;;0.7;0.7;;;;;;;19.0;100.0;101210;;;;
2022/09/04 02:56:01;;;;;;;0.7;0.7;;;;;;;18.9;100.0;101210;;;;
2022/09/04 02:57:10;;;;;;;0.7;0.7;;;;;;;18.9;100.0;101210;;;;
2022/09/04 02:58:10;;;;;;;0.7;0.7;;;;;;;18.6;100.0;101210;;;;
2022/09/04 02:59:10;;;;;;;0.7;0.7;;;;;;;18.6;100.0;101210;;;;
2022/09/04 03:00:06;;;;;;;0.7;0.7;;;;;;;18.6;100.0;101210;;;;
2022/09/04 03:01:07;;;;;;;0.7;0.7;;;;;;;18.6;100.0;101210;;;;
2022/09/04 03:02:02;;;;;;;0.7;0.7;;;;;;;18.8;100.0;101210;;;;
2022/09/04 03:03:07;;;;;;;0.7;0.7;;;;;;;18.8;100.0;101210;;;;
2022/09/04 03:04:04;;;;;;;0.7;0.7;;;;;;;18.9;100.0;101210;;;;
2022/09/04 03:05:10;;;;;;;0.7;0.7;;;;;;;18.9;100.0;101210;;;;
2022/09/04 03:06:05;;;;;;;0.7;0.7;;;;;;;18.8;100.0;101210;;;;
2022/09/04 03:07:00;;;;;;;0.7;0.7;;;;;;;18.8;100.0;101210;;;;
2022/09/04 03:08:06;;;;;;;0.7;0.7;;;;;;;18.8;100.0;101210;;;;
2022/09/04 03:09:06;;;;;;;0.7;0.7;;;;;;;18.8;100.0;101210;;;;
2022/09/04 03:10:10;;;;;;;0.7;0.7;;;;;;;18.8;100.0;101220;;;;
2022/09/04 03:11:10;;;;;;;0.7;0.7;;;;;;;18.8;100.0;101220;;;;
2022/09/04 03:12:05;;;;;;;0.7;0.7;;;;;;;18.9;100.0;101220;;;;
2022/09/04 03:13:07;;;;;;;0.7;0.7;;;;;;;18.9;100.0;101220;;;;
2022/09/04 03:14:11;;;;;;;0.7;0.7;;;;;;;18.7;100.0;101220;;;;
2022/09/04 03:15:10;;;;;;;0.7;0.7;;;;;;;18.7;100.0;101220;;;;
2022/09/04 03:16:10;;;;;;;0.7;0.7;;;;;;;18.7;100.0;101220;;;;
2022/09/04 03:17:04;;;;;;;0.7;0.7;;;;;;;18.7;100.0;101220;;;;
2022/09/04 03:18:16;;;;;;;0.7;0.7;;;;;;;18.7;100.0;101220;;;;
2022/09/04 03:19:11;;;;;;;0.7;0.7;;;;;;;18.7;100.0;101220;;;;
2022/09/04 03:20:10;;;;;;;0.7;0.7;;;;;;;18.8;100.0;101230;;;;
2022/09/04 03:21:05;;;;;;;0.7;0.7;;;;;;;18.8;100.0;101230;;;;
2022/09/04 03:22:07;;;;;;;0.7;0.7;;;;;;;18.8;100.0;101230;;;;
2022/09/04 03:23:01;;;;;;;0.7;0.7;;;;;;;18.8;100.0;101230;;;;
2022/09/04 03:24:06;;;;;;;0.7;0.7;;;;;;;18.5;100.0;101230;;;;
2022/09/04 03:25:03;;;;;;;0.7;0.7;;;;;;;18.5;100.0;101230;;;;
2022/09/04 03:26:03;;;;;;;0.7;0.7;;;;;;;18.7;100.0;101230;;;;
2022/09/04 03:27:04;;;;;;;0.7;0.7;;;;;;;18.7;100.0;101230;;;;
2022/09/04 03:28:00;;;;;;;0.7;0.7;;;;;;;18.7;100.0;101230;;;;
2022/09/04 03:29:00;;;;;;;0.7;0.7;;;;;;;18.7;100.0;101230;;;;
2022/09/04 03:30:09;;;;;;;0.7;0.7;;;;;;;18.7;100.0;101220;;;;
2022/09/04 03:31:05;;;;;;;1.6;1.6;;;;;;;18.7;100.0;101220;;;;
2022/09/04 03:32:16;;;;;;;1.6;1.6;;;;;;;18.6;100.0;101230;;;;
2022/09/04 03:33:10;;;;;;;1.6;1.6;;;;;;;18.6;100.0;101230;;;;
2022/09/04 03:34:01;;;;;;;1.6;1.6;;;;;;;18.6;100.0;101230;;;;
2022/09/04 03:35:01;;;;;;;1.6;1.6;;;;;;;18.6;100.0;101230;;;;
2022/09/04 03:36:10;;;;;;;1.6;1.6;;;;;;;18.6;100.0;101230;;;;
2022/09/04 03:37:10;;;;;;;1.6;1.6;;;;;;;18.6;100.0;101230;;;;
2022/09/04 03:38:03;;;;;;;1.6;1.6;;;;;;;18.6;100.0;101230;;;;
2022/09/04 03:39:10;;;;;;;1.6;1.6;;;;;;;18.6;100.0;101230;;;;
2022/09/04 03:40:01;;;;;;;1.6;1.6;;;;;;;18.6;100.0;101230;;;;
2022/09/04 03:41:13;;;;;;;1.6;1.6;;;;;;;18.6;100.0;101230;;;;
2022/09/04 03:42:05;;;;;;;1.6;1.6;;;;;;;18.6;100.0;101230;;;;
2022/09/04 03:43:01;;;;;;;1.6;1.6;;;;;;;18.6;100.0;101230;;;;
2022/09/04 03:44:10;;;;;;;1.6;1.6;;;;;;;18.3;100.0;101230;;;;
2022/09/04 03:45:08;;;;;;;1.6;1.6;;;;;;;18.3;100.0;101230;;;;
2022/09/04 03:46:10;;;;;;;1.6;1.6;;;;;;;18.5;100.0;101230;;;;
2022/09/04 03:47:10;;;;;;;1.6;1.6;;;;;;;18.5;100.0;101230;;;;
2022/09/04 03:48:10;;;;;;;1.6;1.6;;;;;;;18.6;100.0;101230;;;;
2022/09/04 03:49:06;;;;;;;1.6;1.6;;;;;;;18.6;100.0;101230;;;;
2022/09/04 03:50:00;;;;;;;1.6;1.6;;;;;;;18.6;100.0;101230;;;;
2022/09/04 03:51:09;;;;;;;0.2;0.2;;;;;;;18.6;100.0;101230;;;;
2022/09/04 03:52:07;;;;;;;0.2;0.2;;;;;;;18.6;100.0;101230;;;;
2022/09/04 03:53:06;;;;;;;0.2;0.2;;;;;;;18.6;100.0;101230;;;;
2022/09/04 03:54:11;;;;;;;0.2;0.2;;;;;;;18.6;100.0;101230;;;;
2022/09/04 03:55:00;;;;;;;0.2;0.2;;;;;;;18.6;100.0;101230;;;;
2022/09/04 03:56:01;;;;;;;0.2;0.2;;;;;;;18.6;100.0;101240;;;;
2022/09/04 03:57:10;;;;;;;0.2;0.2;;;;;;;18.6;100.0;101240;;;;
2022/09/04 03:58:08;;;;;;;0.2;0.2;;;;;;;18.6;100.0;101240;;;;
2022/09/04 03:59:03;;;;;;;0.2;0.2;;;;;;;18.6;100.0;101240;;;;
2022/09/04 04:00:10;;;;;;;0.2;0.2;;;;;;;18.6;100.0;101240;;;;
2022/09/04 04:01:00;;;;;;;0.2;0.2;;;;;;;18.6;100.0;101240;;;;
2022/09/04 04:02:00;;;;;;;0.2;0.2;;;;;;;18.6;100.0;101240;;;;
2022/09/04 04:03:03;;;;;;;0.2;0.2;;;;;;;18.6;100.0;101240;;;;
2022/09/04 04:04:12;;;;;;;0.2;0.2;;;;;;;18.6;100.0;101240;;;;
2022/09/04 04:05:00;;;;;;;0.2;0.2;;;;;;;18.6;100.0;101240;;;;
2022/09/04 04:06:07;;;;;;;0.2;0.2;;;;;;;18.6;100.0;101240;;;;
2022/09/04 04:07:07;;;;;;;0.2;0.2;;;;;;;18.6;100.0;101240;;;;
2022/09/04 04:08:09;;;;;;;0.2;0.2;;;;;;;18.6;100.0;101240;;;;
2022/09/04 04:09:01;;;;;;;0.2;0.2;;;;;;;18.6;100.0;101240;;;;
2022/09/04 04:10:12;;;;;;;0.2;0.2;;;;;;;18.5;100.0;101240;;;;
2022/09/04 04:11:01;;;;;;;0.4;0.4;;;;;;;18.5;100.0;101240;;;;
2022/09/04 04:12:03;;;;;;;0.4;0.4;;;;;;;18.5;100.0;101240;;;;
2022/09/04 04:13:11;;;;;;;0.4;0.4;;;;;;;18.5;100.0;101240;;;;
2022/09/04 04:14:08;;;;;;;0.4;0.4;;;;;;;18.5;100.0;101250;;;;
2022/09/04 04:15:04;;;;;;;0.4;0.4;;;;;;;18.5;100.0;101250;;;;
2022/09/04 04:16:10;;;;;;;0.4;0.4;;;;;;;18.4;100.0;101250;;;;
2022/09/04 04:17:01;;;;;;;0.4;0.4;;;;;;;18.4;100.0;101250;;;;
2022/09/04 04:18:01;;;;;;;0.4;0.4;;;;;;;18.5;100.0;101250;;;;
2022/09/04 04:19:05;;;;;;;0.4;0.4;;;;;;;18.5;100.0;101250;;;;
2022/09/04 04:20:10;;;;;;;0.4;0.4;;;;;;;18.4;100.0;101250;;;;
2022/09/04 04:21:07;;;;;;;0.4;0.4;;;;;;;18.4;100.0;101250;;;;
2022/09/04 04:22:10;;;;;;;0.4;0.4;;;;;;;18.5;100.0;101260;;;;
2022/09/04 04:23:11;;;;;;;0.4;0.4;;;;;;;18.5;100.0;101260;;;;
2022/09/04 04:24:01;;;;;;;0.4;0.4;;;;;;;18.3;100.0;101250;;;;
2022/09/04 04:25:07;;;;;;;0.4;0.4;;;;;;;18.3;100.0;101250;;;;
2022/09/04 04:26:01;;;;;;;0.4;0.4;;;;;;;18.4;100.0;101260;;;;
2022/09/04 04:27:08;;;;;;;0.4;0.4;;;;;;;18.4;100.0;101260;;;;
2022/09/04 04:28:15;;;;;;;0.4;0.4;;;;;;;18.3;100.0;101260;;;;
2022/09/04 04:29:01;;;;;;;0.4;0.4;;;;;;;18.3;100.0;101260;;;;
2022/09/04 04:30:00;;;;;;;0.4;0.4;;;;;;;18.3;100.0;101260;;;;
2022/09/04 04:31:08;;;;;;;0.4;0.4;;;;;;;18.3;100.0;101260;;;;
2022/09/04 04:32:10;;;;;;;0.4;0.4;;;;;;;18.4;100.0;101260;;;;
2022/09/04 04:33:07;;;;;;;0.4;0.4;;;;;;;18.4;100.0;101260;;;;
2022/09/04 04:34:10;;;;;;;0.4;0.4;;;;;;;18.4;100.0;101270;;;;
2022/09/04 04:35:03;;;;;;;0.4;0.4;;;;;;;18.4;100.0;101270;;;;
2022/09/04 04:36:06;;;;;;;0.4;0.4;;;;;;;18.4;100.0;101260;;;;
2022/09/04 04:37:10;;;;;;;0.4;0.4;;;;;;;18.4;100.0;101260;;;;
2022/09/04 04:38:10;;;;;;;0.4;0.4;;;;;;;18.3;100.0;101270;;;;
2022/09/04 04:39:08;;;;;;;0.4;0.4;;;;;;;18.3;100.0;101270;;;;
2022/09/04 04:40:00;;;;;;;0.4;0.4;;;;;;;18.3;100.0;101270;;;;
2022/09/04 04:41:07;;;;;;;0.4;0.4;;;;;;;18.3;100.0;101270;;;;
2022/09/04 04:42:06;;;;;;;0.4;0.4;;;;;;;18.3;100.0;101280;;;;
2022/09/04 04:43:07;;;;;;;0.4;0.4;;;;;;;18.3;100.0;101280;;;;
2022/09/04 04:44:10;;;;;;;0.4;0.4;;;;;;;18.2;100.0;101280;;;;
2022/09/04 04:46:03;;;;;;;0.4;0.4;;;;;;;17.9;100.0;101280;;;;
2022/09/04 04:47:10;;;;;;;0.4;0.4;;;;;;;17.9;100.0;101280;;;;
2022/09/04 04:48:10;;;;;;;0.4;0.4;;;;;;;17.8;100.0;101280;;;;
2022/09/04 04:49:10;;;;;;;0.4;0.4;;;;;;;17.8;100.0;101280;;;;
2022/09/04 04:50:10;;;;;;;0.4;0.4;;;;;;;17.8;100.0;101280;;;;
2022/09/04 04:51:10;;;;;;;0.5;0.5;;;;;;;17.8;100.0;101280;;;;
2022/09/04 04:52:10;;;;;;;0.5;0.5;;;;;;;18.0;100.0;101280;;;;
2022/09/04 04:53:04;;;;;;;0.5;0.5;;;;;;;18.0;100.0;101280;;;;
2022/09/04 04:54:12;;;;;;;0.5;0.5;;;;;;;18.0;100.0;101280;;;;
2022/09/04 04:55:10;;;;;;;0.5;0.5;;;;;;;18.0;100.0;101280;;;;
2022/09/04 04:56:04;;;;;;;0.5;0.5;;;;;;;18.1;100.0;101280;;;;
2022/09/04 04:57:08;;;;;;;0.5;0.5;;;;;;;18.1;100.0;101280;;;;
2022/09/04 04:58:10;;;;;;;0.5;0.5;;;;;;;18.1;100.0;101280;;;;
2022/09/04 04:59:19;;;;;;;0.5;0.5;;;;;;;18.1;100.0;101280;;;;
2022/09/04 05:00:04;;;;;;;0.5;0.5;;;;;;;18.2;100.0;101280;;;;
2022/09/04 05:01:10;;;;;;;0.5;0.5;;;;;;;18.2;100.0;101280;;;;
2022/09/04 05:02:10;;;;;;;0.5;0.5;;;;;;;18.2;100.0;101280;;;;
2022/09/04 05:03:01;;;;;;;0.5;0.5;;;;;;;18.2;100.0;101280;;;;
2022/09/04 05:04:06;;;;;;;0.5;0.5;;;;;;;18.1;100.0;101280;;;;
2022/09/04 05:05:12;;;;;;;0.5;0.5;;;;;;;18.1;100.0;101280;;;;
2022/09/04 05:06:05;;;;;;;0.5;0.5;;;;;;;18.2;100.0;101290;;;;
2022/09/04 05:07:00;;;;;;;0.5;0.5;;;;;;;18.2;100.0;101290;;;;
2022/09/04 05:08:10;;;;;;;0.5;0.5;;;;;;;17.8;100.0;101290;;;;
2022/09/04 05:09:10;;;;;;;0.5;0.5;;;;;;;17.8;100.0;101290;;;;
2022/09/04 05:10:06;;;;;;;0.5;0.5;;;;;;;18.0;100.0;101300;;;;
2022/09/04 05:11:10;;;;;;;0.6;0.6;;;;;;;18.0;100.0;101300;;;;
2022/09/04 05:12:07;;;;;;;0.6;0.6;;;;;;;18.2;100.0;101300;;;;
2022/09/04 05:13:00;;;;;;;0.6;0.6;;;;;;;18.2;100.0;101300;;;;
2022/09/04 05:14:10;;;;;;;0.6;0.6;;;;;;;18.2;100.0;101300;;;;
2022/09/04 05:15:01;;;;;;;0.6;0.6;;;;;;;18.2;100.0;101300;;;;
2022/09/04 05:16:11;;;;;;;0.6;0.6;;;;;;;17.9;100.0;101310;;;;
2022/09/04 05:17:10;;;;;;;0.6;0.6;;;;;;;17.9;100.0;101310;;;;
2022/09/04 05:18:06;;;;;;;0.6;0.6;;;;;;;18.1;100.0;101310;;;;
2022/09/04 05:19:08;;;;;;;0.6;0.6;;;;;;;18.1;100.0;101310;;;;
2022/09/04 05:20:10;;;;;;;0.6;0.6;;;;;;;18.1;100.0;101310;;;;
2022/09/04 05:21:08;;;;;;;0.6;0.6;;;;;;;18.1;100.0;101310;;;;
2022/09/04 05:22:10;;;;;;;0.6;0.6;;;;;;;18.0;100.0;101310;;;;
2022/09/04 05:23:08;;;;;;;0.6;0.6;;;;;;;18.0;100.0;101310;;;;
2022/09/04 05:24:08;;;;;;;0.6;0.6;;;;;;;17.9;100.0;101320;;;;
2022/09/04 05:25:10;;;;;;;0.6;0.6;;;;;;;17.9;100.0;101320;;;;
2022/09/04 05:26:10;;;;;;;0.6;0.6;;;;;;;18.1;100.0;101320;;;;
2022/09/04 05:27:06;;;;;;;0.6;0.6;;;;;;;18.1;100.0;101320;;;;
2022/09/04 05:28:10;;;;;;;0.6;0.6;;;;;;;17.9;100.0;101320;;;;
2022/09/04 05:29:10;;;;;;;0.6;0.6;;;;;;;17.9;100.0;101320;;;;
2022/09/04 05:30:10;;;;;;;0.6;0.6;;;;;;;18.0;100.0;101320;;;;
2022/09/04 05:31:10;;;;;;;0.5;0.5;;;;;;;18.0;100.0;101320;;;;
2022/09/04 05:32:04;;;;;;;0.5;0.5;;;;;;;17.9;100.0;101330;;;;
2022/09/04 05:33:07;;;;;;;0.5;0.5;;;;;;;17.9;100.0;101330;;;;
2022/09/04 05:34:01;;;;;;;0.5;0.5;;;;;;;18.0;100.0;101330;;;;
2022/09/04 05:35:09;;;;;;;0.5;0.5;;;;;;;18.0;100.0;101330;;;;
2022/09/04 05:36:08;;;;;;;0.5;0.5;;;;;;;18.1;100.0;101330;;;;
2022/09/04 05:37:10;;;;;;;0.5;0.5;;;;;;;18.1;100.0;101330;;;;
2022/09/04 05:38:06;;;;;;;0.5;0.5;;;;;;;18.2;100.0;101330;;;;
2022/09/04 05:39:06;;;;;;;0.5;0.5;;;;;;;18.2;100.0;101330;;;;
2022/09/04 05:40:06;;;;;;;0.5;0.5;;;;;;;18.2;100.0;101330;;;;
2022/09/04 05:41:05;;;;;;;0.5;0.5;;;;;;;18.2;100.0;101330;;;;
2022/09/04 05:42:06;;;;;;;0.5;0.5;;;;;;;18.2;100.0;101340;;;;
2022/09/04 05:43:04;;;;;;;0.5;0.5;;;;;;;18.2;100.0;101340;;;;
2022/09/04 05:44:10;;;;;;;0.5;0.5;;;;;;;17.9;100.0;101350;;;;
2022/09/04 05:45:10;;;;;;;0.5;0.5;;;;;;;17.9;100.0;101350;;;;
2022/09/04 05:46:03;;;;;;;0.5;0.5;;;;;;;18.0;100.0;101350;;;;
2022/09/04 05:47:01;;;;;;;0.5;0.5;;;;;;;18.0;100.0;101350;;;;
2022/09/04 05:48:10;;;;;;;0.5;0.5;;;;;;;18.2;100.0;101350;;;;
2022/09/04 05:49:06;;;;;;;0.5;0.5;;;;;;;18.2;100.0;101350;;;;
2022/09/04 05:50:11;;;;;;;0.5;0.5;;;;;;;18.2;100.0;101350;;;;
2022/09/04 05:51:11;;;;;;;0.6;0.6;;;;;;;18.2;100.0;101350;;;;
2022/09/04 05:52:10;;;;;;;0.6;0.6;;;;;;;18.2;100.0;101350;;;;
2022/09/04 05:53:10;;;;;;;0.6;0.6;;;;;;;18.2;100.0;101350;;;;
2022/09/04 05:54:07;;;;;;;0.6;0.6;;;;;;;18.1;100.0;101350;;;;
2022/09/04 05:55:10;;;;;;;0.6;0.6;;;;;;;18.1;100.0;101350;;;;
2022/09/04 05:56:10;;;;;;;0.6;0.6;;;;;;;18.0;100.0;101360;;;;
2022/09/04 05:57:06;;;;;;;0.6;0.6;;;;;;;18.0;100.0;101360;;;;
2022/09/04 05:58:10;;;;;;;0.6;0.6;;;;;;;18.2;100.0;101360;;;;
2022/09/04 05:59:01;;;;;;;0.6;0.6;;;;;;;18.2;100.0;101360;;;;
2022/09/04 06:00:05;;;;;;;0.6;0.6;;;;;;;18.3;100.0;101360;;;;
2022/09/04 06:01:01;;;;;;;0.6;0.6;;;;;;;18.3;100.0;101360;;;;
2022/09/04 06:02:01;;;;;;;0.6;0.6;;;;;;;18.1;100.0;101370;;;;
2022/09/04 06:03:10;;;;;;;0.6;0.6;;;;;;;18.1;100.0;101370;;;;
2022/09/04 06:04:10;;;;;;;0.6;0.6;;;;;;;18.3;100.0;101370;;;;
2022/09/04 06:05:01;;;;;;;0.6;0.6;;;;;;;18.3;100.0;101370;;;;
2022/09/04 06:06:10;;;;;;;0.6;0.6;;;;;;;18.4;100.0;101370;;;;
2022/09/04 06:07:07;;;;;;;0.6;0.6;;;;;;;18.4;100.0;101370;;;;
2022/09/04 06:08:10;;;;;;;0.6;0.6;;;;;;;18.3;100.0;101370;;;;
2022/09/04 06:09:01;;;;;;;0.6;0.6;;;;;;;18.3;100.0;101370;;;;
2022/09/04 06:10:10;;;;;;;0.6;0.6;;;;;;;18.4;100.0;101370;;;;
2022/09/04 06:11:10;;;;;;;0.9;0.9;;;;;;;18.4;100.0;101370;;;;
2022/09/04 06:12:04;;;;;;;0.9;0.9;;;;;;;18.5;100.0;101370;;;;
2022/09/04 06:13:10;;;;;;;0.9;0.9;;;;;;;18.5;100.0;101370;;;;
2022/09/04 06:14:08;;;;;;;0.9;0.9;;;;;;;18.5;100.0;101380;;;;
2022/09/04 06:15:10;;;;;;;0.9;0.9;;;;;;;18.5;100.0;101380;;;;
2022/09/04 06:16:07;;;;;;;0.9;0.9;;;;;;;18.5;100.0;101370;;;;
2022/09/04 06:17:09;;;;;;;0.9;0.9;;;;;;;18.5;100.0;101370;;;;
2022/09/04 06:18:10;;;;;;;0.9;0.9;;;;;;;18.6;100.0;101380;;;;
2022/09/04 06:19:06;;;;;;;0.9;0.9;;;;;;;18.6;100.0;101380;;;;
2022/09/04 06:20:10;;;;;;;0.9;0.9;;;;;;;18.5;100.0;101370;;;;
2022/09/04 06:21:03;;;;;;;0.9;0.9;;;;;;;18.5;100.0;101370;;;;
2022/09/04 06:22:10;;;;;;;0.9;0.9;;;;;;;18.6;100.0;101380;;;;
2022/09/04 06:23:10;;;;;;;0.9;0.9;;;;;;;18.6;100.0;101380;;;;